Time;durP1;ratioP1;P1;durP2;ratioP2;P2;SDS_P1;SDS_P2;PMS_P1;PMS_P2;Temp;Humidity;BMP_temperature;BMP_pressure;BME280_temperature;BME280_humidity;BME280_pressure;Samples;Min_cycle;Max_cycle;Signal;HPM_P1;HPM_P2
2021/09/20 00:01:38;;;;;;;;;0.00;0.00;;;;;18.16;70.33;101496.50;4979818;28;45584;-74
2021/09/20 00:04:04;;;;;;;;;3.00;1.00;;;;;18.15;69.91;101497.41;4999146;28;45549;-74
2021/09/20 00:06:29;;;;;;;;;2.00;2.00;;;;;18.15;69.95;101492.94;4997164;28;46818;-75
2021/09/20 00:08:55;;;;;;;;;1.00;1.00;;;;;18.12;70.38;101497.47;4997239;28;45211;-75
2021/09/20 00:11:20;;;;;;;;;0.67;0.67;;;;;18.15;69.73;101495.63;4997228;28;45487;-74
2021/09/20 00:13:45;;;;;;;;;1.00;1.00;;;;;18.14;69.96;101496.53;4997437;28;45566;-74
2021/09/20 00:16:11;;;;;;;;;0.00;0.00;;;;;18.13;69.90;101497.44;4996989;28;46051;-74
2021/09/20 00:18:36;;;;;;;;;0.33;0.33;;;;;18.12;69.67;101495.66;4997349;28;47394;-73
2021/09/20 00:21:02;;;;;;;;;2.00;0.00;;;;;18.13;70.07;101500.09;4979028;28;45368;-74
2021/09/20 00:23:27;;;;;;;;;0.00;0.00;;;;;18.12;70.05;101494.78;4997121;28;45472;-74
2021/09/20 00:25:53;;;;;;;;;0.33;0.33;;;;;18.11;69.86;101493.91;4994818;28;52614;-75
2021/09/20 00:28:19;;;;;;;;;2.00;0.33;;;;;18.09;70.52;101494.81;4997092;28;45466;-74
2021/09/20 00:30:44;;;;;;;;;3.33;1.00;;;;;18.09;70.19;101490.34;4998210;28;45333;-74
2021/09/20 00:33:10;;;;;;;;;1.00;1.00;;;;;18.08;70.13;101490.38;4996734;28;47774;-74
2021/09/20 00:35:35;;;;;;;;;2.00;1.00;;;;;18.03;70.71;101479.72;4996939;28;49365;-74
2021/09/20 00:38:01;;;;;;;;;1.33;0.00;;;;;18.08;70.87;101485.91;4996345;28;47509;-74
2021/09/20 00:40:26;;;;;;;;;2.00;1.00;;;;;18.08;70.79;101482.34;4997358;28;45218;-74
2021/09/20 00:42:52;;;;;;;;;1.33;1.00;;;;;18.06;70.67;101485.94;4997088;28;45578;-74
2021/09/20 00:45:17;;;;;;;;;1.33;1.00;;;;;18.01;70.88;101473.50;4995752;28;49860;-76
2021/09/20 00:47:42;;;;;;;;;2.00;2.00;;;;;18.00;70.52;101469.94;4996760;28;46742;-74
2021/09/20 00:50:08;;;;;;;;;1.00;1.00;;;;;17.99;70.82;101473.50;4997039;28;45740;-74
2021/09/20 00:52:34;;;;;;;;;0.67;0.67;;;;;18.01;70.70;101471.72;4996724;28;45678;-76
2021/09/20 00:54:59;;;;;;;;;3.00;2.00;;;;;18.00;71.20;101469.03;4996469;28;46333;-74
2021/09/20 00:57:25;;;;;;;;;2.00;0.00;;;;;18.00;71.36;101469.03;4979054;28;45473;-74
2021/09/20 00:59:50;;;;;;;;;1.00;1.00;;;;;18.00;70.99;101461.03;4996554;28;45386;-77
2021/09/20 01:02:16;;;;;;;;;2.00;1.00;;;;;17.99;71.09;101468.16;4979232;28;45611;-74
2021/09/20 01:04:41;;;;;;;;;4.00;1.00;;;;;17.96;70.97;101470.00;4995833;28;46390;-75
2021/09/20 01:07:06;;;;;;;;;1.00;1.00;;;;;17.93;71.33;101465.53;4996335;28;45437;-74
2021/09/20 01:09:36;;;;;;;;;1.00;1.00;;;;;17.92;71.35;101460.22;4996014;28;45415;-73
2021/09/20 01:12:02;;;;;;;;;1.67;1.67;;;;;17.91;71.24;101458.47;4979856;28;45704;-74
2021/09/20 01:14:27;;;;;;;;;2.00;2.00;;;;;17.91;71.41;101466.47;4995895;28;46486;-74
2021/09/20 01:16:53;;;;;;;;;1.00;1.00;;;;;17.88;71.76;101448.66;4995102;28;45241;-74
2021/09/20 01:19:18;;;;;;;;;1.00;1.00;;;;;17.93;71.62;101460.19;4996290;28;47326;-74
2021/09/20 01:21:43;;;;;;;;;2.00;0.67;;;;;17.93;71.41;101456.66;4994032;28;45543;-74
2021/09/20 01:24:09;;;;;;;;;1.00;1.00;;;;;17.92;71.68;101461.09;4996191;28;46363;-75
2021/09/20 01:26:34;;;;;;;;;2.33;2.00;;;;;17.89;71.64;101455.78;4995849;28;45393;-74
2021/09/20 01:29:00;;;;;;;;;4.00;2.00;;;;;17.87;72.01;101454.03;4995909;28;45419;-75
2021/09/20 01:31:25;;;;;;;;;3.00;2.00;;;;;17.80;71.50;101455.88;4996283;28;45385;-74
2021/09/20 01:33:50;;;;;;;;;3.67;2.00;;;;;17.75;71.56;101458.59;4996105;28;46528;-75
2021/09/20 01:36:16;;;;;;;;;2.67;1.00;;;;;17.73;71.87;101455.03;4995518;28;45167;-76
2021/09/20 01:38:41;;;;;;;;;2.00;1.00;;;;;17.69;71.44;101460.41;4996033;28;47183;-74
2021/09/20 01:41:07;;;;;;;;;2.67;1.00;;;;;17.63;71.87;101457.75;4996457;28;45507;-76
2021/09/20 01:43:32;;;;;;;;;3.33;1.00;;;;;17.58;71.92;101454.22;4995624;28;46697;-73
2021/09/20 01:45:58;;;;;;;;;1.33;1.00;;;;;17.54;72.25;101458.72;4978321;28;45354;-73
2021/09/20 01:48:23;;;;;;;;;2.33;0.33;;;;;17.53;72.57;101448.97;4995679;28;45661;-76
2021/09/20 01:50:48;;;;;;;;;3.00;1.33;;;;;17.53;72.60;101446.28;4996568;28;45322;-76
2021/09/20 01:53:14;;;;;;;;;2.33;2.33;;;;;17.55;72.79;101452.47;4995409;28;51184;-74
2021/09/20 01:55:39;;;;;;;;;1.00;1.00;;;;;17.50;72.77;101435.59;4977548;28;45538;-75
2021/09/20 01:58:05;;;;;;;;;4.00;2.00;;;;;17.57;72.53;101447.13;4993682;28;45477;-75
2021/09/20 02:00:30;;;;;;;;;2.00;2.00;;;;;17.53;72.43;101449.84;4995772;28;45482;-76
2021/09/20 02:02:56;;;;;;;;;4.00;3.00;;;;;17.49;72.61;101436.53;4996078;28;45423;-74
2021/09/20 02:05:21;;;;;;;;;3.33;2.00;;;;;17.45;72.60;101440.97;4995065;28;47753;-74
2021/09/20 02:07:47;;;;;;;;;3.00;2.00;;;;;17.41;72.88;101441.00;4995545;28;45959;-74
2021/09/20 02:10:13;;;;;;;;;2.00;2.00;;;;;17.38;72.86;101441.06;4995373;28;45230;-74
2021/09/20 02:12:39;;;;;;;;;2.00;2.00;;;;;17.35;73.01;101444.63;4995406;28;45710;-74
2021/09/20 02:15:05;;;;;;;;;2.00;2.00;;;;;17.33;73.05;101441.09;4995776;28;45153;-75
2021/09/20 02:17:30;;;;;;;;;3.00;1.33;;;;;17.34;73.31;101436.63;4995954;28;45531;-76
2021/09/20 02:19:56;;;;;;;;;2.00;2.00;;;;;17.35;73.22;101436.59;4995523;28;45359;-76
2021/09/20 02:22:21;;;;;;;;;3.67;3.67;;;;;17.38;73.30;101438.38;4995432;28;45597;-74
2021/09/20 02:24:46;;;;;;;;;3.67;1.33;;;;;17.40;73.42;101436.56;4995294;28;48050;-74
2021/09/20 02:27:12;;;;;;;;;3.00;2.00;;;;;17.37;73.20;101424.16;4995476;28;46727;-76
2021/09/20 02:29:37;;;;;;;;;4.00;2.33;;;;;17.41;73.05;101425.88;4999266;28;45546;-75
2021/09/20 02:32:03;;;;;;;;;3.33;2.67;;;;;17.43;73.24;101424.09;4998691;28;46287;-75
2021/09/20 02:34:29;;;;;;;;;2.00;2.00;;;;;17.45;73.04;101432.09;4999779;28;46126;-74
2021/09/20 02:36:54;;;;;;;;;2.33;2.33;;;;;17.43;73.08;101426.78;4998827;28;45491;-74
2021/09/20 02:39:20;;;;;;;;;2.00;2.00;;;;;17.45;73.25;101432.09;4998058;28;46696;-74
2021/09/20 02:41:46;;;;;;;;;2.00;2.00;;;;;17.44;72.93;101430.31;4999061;28;45673;-75
2021/09/20 02:44:12;;;;;;;;;2.00;2.00;;;;;17.45;73.42;101430.31;4998450;28;45366;-75
2021/09/20 02:46:38;;;;;;;;;3.33;3.00;;;;;17.43;72.87;101424.09;4998861;28;45327;-74
2021/09/20 02:49:03;;;;;;;;;3.00;2.00;;;;;17.42;73.32;101430.34;4999139;28;45529;-73
2021/09/20 02:51:28;;;;;;;;;3.00;2.00;;;;;17.41;73.15;101425.88;4998004;28;45745;-75
2021/09/20 02:53:54;;;;;;;;;5.67;3.00;;;;;17.41;73.26;101425.88;4998456;28;45580;-74
2021/09/20 02:56:19;;;;;;;;;3.33;2.33;;;;;17.43;73.04;101423.22;4998651;28;45521;-74
2021/09/20 02:58:45;;;;;;;;;2.00;2.00;;;;;17.42;73.36;101421.47;5001152;28;45681;-75
2021/09/20 03:01:10;;;;;;;;;3.67;2.00;;;;;17.38;73.26;101420.59;4997840;28;45716;-74
2021/09/20 03:03:35;;;;;;;;;3.33;3.00;;;;;17.44;73.08;101424.97;4980644;28;53215;-74
2021/09/20 03:06:01;;;;;;;;;2.00;2.00;;;;;17.44;73.28;101422.31;4998434;28;46022;-76
2021/09/20 03:08:26;;;;;;;;;5.33;4.00;;;;;17.44;73.11;101425.88;4997825;28;45558;-74
2021/09/20 03:10:52;;;;;;;;;2.00;2.00;;;;;17.46;73.23;101428.50;4998471;28;46353;-74
2021/09/20 03:13:17;;;;;;;;;5.00;3.00;;;;;17.43;73.28;101428.56;4980103;28;48386;-74
2021/09/20 03:15:42;;;;;;;;;3.67;3.33;;;;;17.45;73.33;101426.75;4998645;28;45526;-75
2021/09/20 03:18:08;;;;;;;;;4.00;2.00;;;;;17.46;73.24;101428.50;4998309;28;45606;-74
2021/09/20 03:20:33;;;;;;;;;3.00;3.00;;;;;17.48;73.24;101437.41;4998183;28;45416;-76
2021/09/20 03:22:59;;;;;;;;;3.00;3.00;;;;;17.48;73.44;101434.75;4997680;28;48987;-74
2021/09/20 03:25:24;;;;;;;;;3.00;3.00;;;;;17.46;73.54;101424.06;4996480;28;45334;-75
2021/09/20 03:27:50;;;;;;;;;4.00;4.00;;;;;17.50;73.42;101424.94;4980564;28;45511;-76
2021/09/20 03:30:16;;;;;;;;;3.00;3.00;;;;;17.53;73.38;101441.81;4998103;28;45584;-74
2021/09/20 03:32:41;;;;;;;;;5.33;4.00;;;;;17.52;73.34;101434.72;4997213;28;45329;-75
2021/09/20 03:35:08;;;;;;;;;5.33;4.67;;;;;17.55;73.62;101436.47;4997990;28;45267;-75
2021/09/20 03:37:33;;;;;;;;;2.33;2.33;;;;;17.50;73.52;101436.50;4997537;28;45413;-75
2021/09/20 03:39:59;;;;;;;;;3.00;3.00;;;;;17.55;73.19;101442.69;4996917;28;45372;-75
2021/09/20 03:42:24;;;;;;;;;5.00;3.67;;;;;17.55;73.53;101444.47;4997753;28;45274;-74
2021/09/20 03:44:50;;;;;;;;;3.00;3.00;;;;;17.56;73.44;101443.56;4980229;28;45318;-76
2021/09/20 03:47:15;;;;;;;;;6.67;3.67;;;;;17.57;73.45;101442.66;4999191;28;45606;-75
2021/09/20 03:49:41;;;;;;;;;6.00;5.00;;;;;17.57;73.63;101437.31;5000391;28;45625;-74
2021/09/20 03:52:06;;;;;;;;;5.00;4.00;;;;;17.60;73.69;101437.31;4997258;28;45235;-77
2021/09/20 03:54:32;;;;;;;;;5.00;3.00;;;;;17.61;73.45;101436.41;4997655;28;45685;-75
2021/09/20 03:56:57;;;;;;;;;6.67;3.00;;;;;17.62;73.38;101439.97;4997647;28;45602;-74
2021/09/20 03:59:22;;;;;;;;;4.00;3.00;;;;;17.62;73.51;101440.84;4997968;28;46239;-76
2021/09/20 04:01:48;;;;;;;;;6.67;3.00;;;;;17.63;73.56;101429.28;4997297;28;45470;-75
2021/09/20 04:04:13;;;;;;;;;3.00;3.00;;;;;17.61;73.13;101433.75;4997295;28;45890;-75
2021/09/20 04:06:39;;;;;;;;;6.00;2.00;;;;;17.60;73.19;101439.09;4997823;28;45447;-75
2021/09/20 04:09:04;;;;;;;;;2.00;1.00;;;;;17.59;73.14;101438.22;5002733;28;46852;-74
2021/09/20 04:11:30;;;;;;;;;5.33;3.00;;;;;17.58;73.48;101449.81;4997126;28;45424;-75
2021/09/20 04:13:55;;;;;;;;;3.00;3.00;;;;;17.57;73.08;101442.66;4997713;28;45434;-75
2021/09/20 04:16:21;;;;;;;;;6.00;3.67;;;;;17.55;73.45;101439.13;4997985;28;45328;-75
2021/09/20 04:18:46;;;;;;;;;3.00;3.00;;;;;17.54;73.29;101434.69;4996704;28;45289;-74
2021/09/20 04:21:11;;;;;;;;;4.33;4.33;;;;;17.57;73.27;101437.31;4997471;28;45460;-76
2021/09/20 04:23:37;;;;;;;;;4.00;4.00;;;;;17.55;73.38;101440.03;4996673;28;45565;-74
2021/09/20 04:26:02;;;;;;;;;3.33;3.00;;;;;17.57;73.21;101444.44;4997540;28;45619;-74
2021/09/20 04:28:28;;;;;;;;;5.33;4.00;;;;;17.57;73.49;101445.34;4996619;28;45568;-76
2021/09/20 04:30:53;;;;;;;;;2.00;2.00;;;;;17.59;73.24;101451.56;4979531;28;45365;-77
2021/09/20 04:33:19;;;;;;;;;3.00;3.00;;;;;17.58;73.19;101448.88;4997029;28;46045;-74
2021/09/20 04:35:45;;;;;;;;;2.33;2.33;;;;;17.52;73.31;101437.38;4997118;28;45298;-74
2021/09/20 04:38:10;;;;;;;;;4.33;3.33;;;;;17.58;73.25;101444.47;4978737;28;45513;-74
2021/09/20 04:40:36;;;;;;;;;4.00;4.00;;;;;17.54;73.23;101446.25;4996839;28;46914;-74
2021/09/20 04:43:07;;;;;;;;;7.67;3.00;;;;;17.49;73.03;101442.75;4997012;28;46324;-74
2021/09/20 04:45:32;;;;;;;;;4.67;4.00;;;;;17.41;73.29;101438.34;4989672;28;45396;-74
2021/09/20 04:47:58;;;;;;;;;3.33;3.00;;;;;17.42;73.10;101446.38;4962593;28;46419;-74
2021/09/20 04:50:23;;;;;;;;;3.00;3.00;;;;;17.34;73.17;101440.19;4996145;28;45479;-74
2021/09/20 04:52:49;;;;;;;;;6.00;5.00;;;;;17.27;73.43;101439.34;4995523;28;45953;-76
2021/09/20 04:55:14;;;;;;;;;3.33;2.33;;;;;17.30;73.61;101451.75;4996451;28;45595;-74
2021/09/20 04:57:39;;;;;;;;;3.33;3.33;;;;;17.25;73.39;101446.47;4996142;28;46031;-74
2021/09/20 05:00:06;;;;;;;;;4.00;4.00;;;;;17.26;73.57;101447.38;4996223;28;45515;-77
2021/09/20 05:02:31;;;;;;;;;4.00;4.00;;;;;17.29;73.43;101450.00;4997960;28;45463;-75
2021/09/20 05:04:57;;;;;;;;;3.67;3.67;;;;;17.19;73.73;101435.81;4996246;28;45433;-74
2021/09/20 05:07:22;;;;;;;;;3.00;3.00;;;;;17.33;73.60;101449.09;4996374;28;45616;-74
2021/09/20 05:09:47;;;;;;;;;6.00;3.33;;;;;17.36;73.91;101453.50;4995801;28;49443;-74
2021/09/20 05:12:13;;;;;;;;;4.00;4.00;;;;;17.34;73.80;101447.31;4996082;28;45591;-74
2021/09/20 05:14:38;;;;;;;;;8.00;5.00;;;;;17.40;73.80;101456.16;4996331;28;45371;-74
2021/09/20 05:17:04;;;;;;;;;7.00;5.67;;;;;17.38;73.65;101457.94;4996253;28;45738;-76
2021/09/20 05:19:30;;;;;;;;;5.00;5.00;;;;;17.40;73.55;101461.50;4995624;28;45434;-75
2021/09/20 05:21:55;;;;;;;;;7.33;5.67;;;;;17.37;73.53;101460.66;4996609;28;45308;-74
2021/09/20 05:24:21;;;;;;;;;6.00;6.00;;;;;17.41;73.59;101471.25;4995739;28;45242;-75
2021/09/20 05:26:46;;;;;;;;;5.00;5.00;;;;;17.41;73.58;101473.94;4995657;28;54118;-75
2021/09/20 05:29:12;;;;;;;;;6.33;5.33;;;;;17.39;73.94;101469.50;4996019;28;45301;-72
2021/09/20 05:31:37;;;;;;;;;8.67;6.67;;;;;17.34;73.99;101476.66;4996375;28;45308;-72
2021/09/20 05:34:03;;;;;;;;;6.33;6.00;;;;;17.26;74.12;101468.72;4995886;28;45605;-72
2021/09/20 05:36:28;;;;;;;;;9.33;8.33;;;;;17.20;74.46;101468.72;4993516;28;45536;-73
2021/09/20 05:38:53;;;;;;;;;10.00;6.33;;;;;17.15;75.08;101479.47;4995815;28;45537;-72
2021/09/20 05:41:19;;;;;;;;;10.00;7.00;;;;;17.13;75.07;101475.91;4994842;28;45436;-72
2021/09/20 05:43:44;;;;;;;;;9.67;6.00;;;;;17.15;75.20;101468.78;4992927;28;45534;-76
2021/09/20 05:46:10;;;;;;;;;7.00;6.33;;;;;17.09;75.20;101462.56;4991476;28;49520;-74
2021/09/20 05:48:35;;;;;;;;;8.33;6.67;;;;;17.02;75.52;101475.97;4993954;28;46624;-75
2021/09/20 05:51:00;;;;;;;;;8.67;8.67;;;;;17.02;76.04;101478.63;4993968;28;45748;-75
2021/09/20 05:53:26;;;;;;;;;8.00;8.00;;;;;17.02;76.11;101477.75;4995578;28;45634;-77
2021/09/20 05:55:51;;;;;;;;;8.33;7.33;;;;;17.00;75.95;101484.88;4994932;28;47645;-74
2021/09/20 05:58:17;;;;;;;;;11.33;10.00;;;;;16.96;76.22;101473.31;4994449;28;45334;-76
2021/09/20 06:00:43;;;;;;;;;15.67;11.00;;;;;16.92;76.53;101470.69;4993572;28;45453;-75
2021/09/20 06:03:09;;;;;;;;;12.67;11.33;;;;;16.91;77.29;101476.91;5000671;28;45636;-74
2021/09/20 06:05:38;;;;;;;;;8.67;8.67;;;;;16.95;76.87;101481.34;4984637;28;45496;-74
2021/09/20 06:08:04;;;;;;;;;12.00;9.33;;;;;16.93;76.65;101484.00;4983928;28;45621;-72
2021/09/20 06:10:30;;;;;;;;;17.00;10.67;;;;;16.92;77.09;101490.22;5003375;28;45674;-73
2021/09/20 06:12:55;;;;;;;;;11.33;11.33;;;;;16.92;76.97;101492.00;5001814;28;46445;-71
2021/09/20 06:15:20;;;;;;;;;13.67;11.33;;;;;16.92;77.41;101494.69;5001557;28;45953;-72
2021/09/20 06:17:46;;;;;;;;;12.67;11.67;;;;;16.92;77.49;101495.56;5002056;28;45237;-75
2021/09/20 06:20:12;;;;;;;;;13.00;12.00;;;;;16.91;77.88;101490.25;4983877;28;45270;-72
2021/09/20 06:22:37;;;;;;;;;12.33;11.00;;;;;16.93;77.61;101483.13;4993724;28;45448;-73
2021/09/20 06:25:03;;;;;;;;;14.33;12.00;;;;;17.03;77.34;101493.72;5000842;28;45737;-73
2021/09/20 06:27:29;;;;;;;;;17.67;15.00;;;;;17.08;77.27;101501.72;5001312;28;45447;-73
2021/09/20 06:29:54;;;;;;;;;13.33;11.67;;;;;17.12;77.32;101495.47;5001274;28;45567;-72
2021/09/20 06:32:20;;;;;;;;;14.33;12.00;;;;;17.16;77.35;101499.91;5000291;28;45491;-72
2021/09/20 06:34:45;;;;;;;;;14.67;14.00;;;;;17.22;77.49;101499.88;4984271;28;46129;-75
2021/09/20 06:37:11;;;;;;;;;17.33;16.33;;;;;17.22;77.34;101499.00;5001118;28;45396;-73
2021/09/20 06:39:36;;;;;;;;;16.33;14.67;;;;;17.32;77.70;101503.38;5001181;28;45451;-71
2021/09/20 06:42:02;;;;;;;;;13.33;11.67;;;;;17.36;77.22;101504.22;5000047;28;45584;-74
2021/09/20 06:44:28;;;;;;;;;15.67;11.00;;;;;17.37;77.41;101508.69;4994557;28;45823;-74
2021/09/20 06:46:54;;;;;;;;;15.00;13.00;;;;;17.39;77.36;101510.44;4995333;28;45591;-78
2021/09/20 06:49:22;;;;;;;;;20.33;14.67;;;;;17.43;77.62;101512.22;5001744;28;45526;-71
2021/09/20 06:51:47;;;;;;;;;17.00;14.67;;;;;17.47;77.01;101515.72;5002301;28;45594;-71
2021/09/20 06:54:12;;;;;;;;;19.33;12.67;;;;;17.52;77.64;101524.59;4995704;28;51286;-74
2021/09/20 06:56:38;;;;;;;;;20.00;16.00;;;;;17.56;77.08;101526.34;4994889;28;45527;-81
2021/09/20 06:59:04;;;;;;;;;21.67;15.67;;;;;17.66;76.47;101530.72;4983268;28;45425;-78
2021/09/20 07:01:30;;;;;;;;;20.00;17.00;;;;;17.71;76.41;101526.25;4978931;28;45610;-77
2021/09/20 07:03:55;;;;;;;;;16.67;13.67;;;;;17.77;76.36;101536.91;4987276;28;45696;-76
2021/09/20 07:06:20;;;;;;;;;19.67;15.33;;;;;17.85;76.25;101528.88;4989837;28;45596;-78
2021/09/20 07:08:46;;;;;;;;;14.67;14.67;;;;;17.91;75.93;101530.59;4982364;28;45579;-78
2021/09/20 07:11:11;;;;;;;;;16.00;12.67;;;;;18.00;75.61;101535.84;5003399;28;45838;-79
2021/09/20 07:13:37;;;;;;;;;17.33;14.33;;;;;18.06;75.51;101536.69;4987536;28;46083;-78
2021/09/20 07:16:02;;;;;;;;;16.33;15.67;;;;;18.17;75.34;101535.72;4999093;28;52185;-77
2021/09/20 07:18:28;;;;;;;;;17.67;15.33;;;;;18.23;75.27;101533.88;4995306;28;47265;-77
2021/09/20 07:20:53;;;;;;;;;19.67;16.00;;;;;18.30;74.93;101535.56;4994252;28;47995;-77
2021/09/20 07:23:19;;;;;;;;;22.33;17.67;;;;;18.36;75.07;101536.41;4996945;28;46373;-77
2021/09/20 07:25:44;;;;;;;;;22.00;18.67;;;;;18.43;75.04;101546.13;5106802;22;45420;-78
2021/09/20 07:28:10;;;;;;;;;17.33;16.33;;;;;18.49;74.59;101546.09;5010146;28;46048;-77
2021/09/20 07:30:37;;;;;;;;;18.67;15.00;;;;;18.53;74.44;101546.03;5012210;28;45447;-77
2021/09/20 07:33:02;;;;;;;;;16.67;14.33;;;;;18.57;74.43;101544.22;5013108;28;45598;-77
2021/09/20 07:35:28;;;;;;;;;18.67;15.67;;;;;18.61;74.33;101543.28;5015258;28;45813;-77
2021/09/20 07:37:54;;;;;;;;;17.00;17.00;;;;;18.61;74.50;101545.97;5015000;28;45468;-77
2021/09/20 07:40:21;;;;;;;;;18.67;16.67;;;;;18.68;74.49;101547.69;5011201;28;45524;-77
2021/09/20 07:42:46;;;;;;;;;19.33;15.00;;;;;18.73;74.10;101548.53;5015221;28;46739;-77
2021/09/20 07:45:12;;;;;;;;;18.33;17.00;;;;;18.77;73.80;101555.63;5009669;28;45595;-77
2021/09/20 07:47:39;;;;;;;;;17.67;16.33;;;;;18.80;74.03;101550.25;5017440;28;45574;-77
2021/09/20 07:50:06;;;;;;;;;22.33;17.33;;;;;18.86;73.31;101551.09;5030254;28;45498;-77
2021/09/20 07:52:31;;;;;;;;;17.33;16.33;;;;;18.87;73.35;101552.84;5038814;28;48354;-78
2021/09/20 07:54:57;;;;;;;;;19.00;14.33;;;;;18.89;73.13;101556.38;5013234;28;48029;-77
2021/09/20 07:57:23;;;;;;;;;19.33;15.67;;;;;18.90;73.19;101558.16;5025847;28;45854;-77
2021/09/20 07:59:49;;;;;;;;;17.33;17.33;;;;;18.93;72.82;101563.50;5034147;28;45526;-76
2021/09/20 08:02:14;;;;;;;;;24.67;21.33;;;;;18.97;73.17;101559.88;5027158;28;49655;-77
2021/09/20 08:04:40;;;;;;;;;28.67;22.67;;;;;19.02;73.28;101563.38;5027079;28;45488;-78
2021/09/20 08:07:05;;;;;;;;;20.67;20.67;;;;;19.10;73.21;101558.81;5035516;28;45303;-78
2021/09/20 08:09:31;;;;;;;;;19.33;19.33;;;;;19.21;72.92;101566.69;5022937;28;45505;-78
2021/09/20 08:11:56;;;;;;;;;16.00;15.00;;;;;19.27;72.69;101567.50;5027198;28;49714;-77
2021/09/20 08:14:21;;;;;;;;;21.00;17.33;;;;;19.30;72.97;101566.59;5028860;28;49996;-77
2021/09/20 08:16:47;;;;;;;;;23.67;18.67;;;;;19.34;72.42;101568.31;5027776;28;45552;-78
2021/09/20 08:19:12;;;;;;;;;23.00;17.67;;;;;19.38;72.38;101572.72;5029346;28;45499;-76
2021/09/20 08:21:38;;;;;;;;;18.00;17.67;;;;;19.47;72.01;101577.06;5027427;28;47494;-77
2021/09/20 08:24:03;;;;;;;;;21.00;17.00;;;;;19.51;72.52;101577.00;5032160;28;45449;-77
2021/09/20 08:26:29;;;;;;;;;18.00;15.67;;;;;19.54;72.41;101573.38;5031171;28;45434;-77
2021/09/20 08:28:55;;;;;;;;;19.67;17.67;;;;;19.60;71.32;101576.91;5029290;28;45486;-77
2021/09/20 08:31:20;;;;;;;;;22.67;18.00;;;;;19.72;71.31;101591.03;5031354;28;47557;-78
2021/09/20 08:33:46;;;;;;;;;14.33;14.33;;;;;19.81;71.06;101574.81;5032181;28;45499;-77
2021/09/20 08:36:11;;;;;;;;;22.00;20.67;;;;;19.90;70.97;101580.03;5031993;28;48279;-77
2021/09/20 08:38:37;;;;;;;;;22.67;16.33;;;;;19.97;71.35;101570.09;5030092;28;45368;-78
2021/09/20 08:41:02;;;;;;;;;22.67;19.00;;;;;20.01;70.63;101574.50;5028872;28;46599;-77
2021/09/20 08:43:28;;;;;;;;;21.00;19.33;;;;;20.02;70.59;101579.81;5029082;28;45423;-77
2021/09/20 08:45:55;;;;;;;;;18.00;17.33;;;;;20.04;71.00;101580.72;5024336;28;46675;-79
2021/09/20 08:48:20;;;;;;;;;27.33;22.33;;;;;20.06;70.48;101575.31;5014659;28;45431;-75
2021/09/20 08:50:46;;;;;;;;;21.67;18.67;;;;;20.03;71.09;101580.75;5025985;28;46398;-74
2021/09/20 08:53:11;;;;;;;;;21.33;19.33;;;;;20.08;70.40;101582.44;5031508;28;45529;-77
2021/09/20 08:55:39;;;;;;;;;23.33;17.67;;;;;20.19;70.76;101589.38;5030897;28;45756;-74
2021/09/20 08:58:04;;;;;;;;;20.33;17.33;;;;;20.25;70.07;101592.00;5026808;28;45723;-77
2021/09/20 09:00:30;;;;;;;;;23.67;18.67;;;;;20.33;70.62;101593.63;5027416;28;46455;-76
2021/09/20 09:02:55;;;;;;;;;22.33;19.67;;;;;20.40;70.11;101592.63;5031445;28;45521;-75
2021/09/20 09:05:22;;;;;;;;;20.67;18.67;;;;;20.48;70.41;101595.19;5027545;28;45860;-76
2021/09/20 09:07:52;;;;;;;;;16.00;16.00;;;;;20.53;69.65;101600.47;5027275;28;45629;-76
2021/09/20 09:10:17;;;;;;;;;20.67;17.67;;;;;20.55;69.30;101598.63;5034141;28;46654;-76
2021/09/20 09:12:43;;;;;;;;;17.67;17.67;;;;;20.56;69.24;101595.03;5032239;28;45570;-75
2021/09/20 09:15:10;;;;;;;;;14.67;14.00;;;;;20.53;69.19;101596.00;5031456;28;45440;-76
2021/09/20 09:17:37;;;;;;;;;18.33;16.33;;;;;20.57;69.18;101589.66;5029096;28;45545;-75
2021/09/20 09:20:08;;;;;;;;;21.67;17.33;;;;;20.65;68.54;101603.81;5030936;28;46278;-76
2021/09/20 09:22:50;;;;;;;;;19.33;16.00;;;;;20.74;68.30;101605.44;5030723;28;45551;-76
2021/09/20 09:25:23;;;;;;;;;23.00;18.00;;;;;20.74;68.50;101605.44;5023164;28;45476;-77
2021/09/20 09:27:50;;;;;;;;;14.33;13.33;;;;;20.76;67.86;101614.34;5029719;28;45603;-76
2021/09/20 09:30:26;;;;;;;;;19.33;17.67;;;;;20.81;68.46;101609.78;5030867;28;46632;-75
2021/09/20 09:33:07;;;;;;;;;17.67;14.67;;;;;20.92;67.87;101613.13;5023778;28;45486;-75
2021/09/20 09:35:33;;;;;;;;;14.33;12.67;;;;;21.03;67.88;101614.72;5024986;28;46531;-76
2021/09/20 09:38:04;;;;;;;;;17.67;15.00;;;;;21.08;67.72;101620.88;5031165;28;45416;-76
2021/09/20 09:40:30;;;;;;;;;14.00;11.67;;;;;21.09;66.79;101618.19;5027834;28;47931;-75
2021/09/20 09:43:02;;;;;;;;;14.67;12.67;;;;;21.10;67.55;101609.22;5028607;28;45983;-78
2021/09/20 09:45:32;;;;;;;;;16.67;14.33;;;;;21.11;67.57;101619.03;5007274;28;46889;-76
2021/09/20 09:48:13;;;;;;;;;25.33;21.67;;;;;21.05;67.07;101620.97;5026213;28;46697;-76
2021/09/20 09:51:00;;;;;;;;;16.00;14.67;;;;;20.92;67.36;101618.50;5026334;28;47525;-77
2021/09/20 09:53:27;;;;;;;;;16.67;14.00;;;;;20.85;67.36;101619.53;5027751;28;45469;-76
2021/09/20 09:55:57;;;;;;;;;15.00;14.33;;;;;20.80;67.19;101626.81;5026320;28;45646;-76
2021/09/20 09:58:25;;;;;;;;;16.00;13.33;;;;;20.76;67.09;101627.75;5010790;28;45631;-75
2021/09/20 10:00:50;;;;;;;;;19.33;15.33;;;;;20.73;67.46;101632.31;5029191;28;46341;-76
2021/09/20 10:03:15;;;;;;;;;13.67;11.67;;;;;20.69;67.54;101634.16;5010538;28;45612;-78
2021/09/20 10:05:55;;;;;;;;;22.67;17.33;;;;;20.65;67.47;101635.13;5008703;28;45568;-77
2021/09/20 10:08:20;;;;;;;;;13.67;12.67;;;;;20.62;67.20;101638.75;5027876;28;47898;-76
2021/09/20 10:10:46;;;;;;;;;16.00;16.00;;;;;20.57;68.11;101639.75;5000387;28;45507;-76
2021/09/20 10:13:14;;;;;;;;;15.33;14.00;;;;;20.52;67.66;101637.16;5008325;28;46834;-77
2021/09/20 10:15:40;;;;;;;;;17.33;15.00;;;;;20.49;68.04;101642.56;5022059;28;45555;-78
2021/09/20 10:18:06;;;;;;;;;17.33;14.67;;;;;20.48;67.79;101643.47;5031066;28;45419;-79
2021/09/20 10:20:31;;;;;;;;;15.33;12.00;;;;;20.51;67.84;101639.88;5028634;28;46914;-76
2021/09/20 10:22:57;;;;;;;;;15.33;14.00;;;;;20.52;67.75;101633.59;5025789;28;46258;-77
2021/09/20 10:25:25;;;;;;;;;15.00;14.00;;;;;20.53;67.54;101636.22;5031838;28;45321;-76
2021/09/20 10:27:50;;;;;;;;;15.67;13.33;;;;;20.54;67.79;101643.38;5036059;28;45547;-78
2021/09/20 10:30:22;;;;;;;;;16.00;14.67;;;;;20.52;67.74;101641.63;5029736;28;46550;-77
2021/09/20 10:32:53;;;;;;;;;18.00;16.67;;;;;20.47;67.38;101646.19;5032713;28;45950;-85
2021/09/20 10:35:50;;;;;;;;;18.00;18.00;;;;;20.49;68.07;101645.25;5034604;28;45242;-77
2021/09/20 10:38:23;;;;;;;;;15.33;13.00;;;;;20.54;67.39;101647.84;5035922;28;45490;-75
2021/09/20 10:41:07;;;;;;;;;19.00;16.67;;;;;20.57;67.38;101637.97;5028174;28;47950;-74
2021/09/20 10:43:34;;;;;;;;;19.33;14.33;;;;;20.62;67.89;101635.19;5030691;28;45433;-75
2021/09/20 10:46:01;;;;;;;;;19.00;15.33;;;;;20.72;67.81;101644.88;5031928;28;45495;-74
2021/09/20 10:48:27;;;;;;;;;15.00;13.00;;;;;20.78;67.40;101644.75;5006659;28;45627;-74
2021/09/20 10:51:27;;;;;;;;;14.33;13.00;;;;;20.82;67.66;101649.13;5030714;28;47859;-75
2021/09/20 10:54:12;;;;;;;;;18.67;16.00;;;;;20.89;67.35;101639.19;5014993;28;45503;-74
2021/09/20 10:56:38;;;;;;;;;14.33;11.33;;;;;20.97;66.68;101633.66;5032823;28;45583;-76
2021/09/20 10:59:05;;;;;;;;;13.00;9.67;;;;;21.03;67.13;101637.09;5035148;28;45208;-75
2021/09/20 11:01:31;;;;;;;;;15.33;13.00;;;;;21.12;66.49;101644.09;5034548;28;47562;-75
2021/09/20 11:04:00;;;;;;;;;14.33;14.33;;;;;21.20;66.00;101639.47;5031437;28;45778;-74
2021/09/20 11:06:34;;;;;;;;;15.00;14.00;;;;;21.28;65.48;101634.81;5033515;28;45325;-73
2021/09/20 11:09:02;;;;;;;;;15.67;15.67;;;;;21.39;66.17;101642.69;5038427;28;45585;-75
2021/09/20 11:11:43;;;;;;;;;12.00;10.00;;;;;21.44;65.84;101644.34;5033059;28;46709;-73
2021/09/20 11:14:22;;;;;;;;;14.67;11.00;;;;;21.50;65.87;101642.47;5034765;28;45468;-75